createdAt,value
2022-11-14T00:02:17.948Z,22.77
2022-11-14T00:04:46.764Z,22.15
2022-11-14T00:07:13.877Z,19.30
2022-11-14T00:09:43.015Z,20.67
2022-11-14T00:12:10.536Z,24.67
2022-11-14T00:14:37.908Z,20.65
2022-11-14T00:17:05.379Z,21.25
2022-11-14T00:19:32.489Z,24.40
2022-11-14T00:22:00.235Z,22.53
2022-11-14T00:24:27.366Z,19.58
2022-11-14T00:26:54.413Z,24.30
2022-11-14T00:29:21.420Z,27.52
2022-11-14T00:31:48.527Z,26.48
2022-11-14T00:34:15.606Z,25.75
2022-11-14T00:36:42.681Z,24.40
2022-11-14T00:39:13.042Z,24.75
2022-11-14T00:41:40.554Z,22.33
2022-11-14T00:44:07.715Z,23.40
2022-11-14T00:46:35.406Z,20.80
2022-11-14T00:49:02.462Z,20.50
2022-11-14T00:51:29.506Z,17.83
2022-11-14T00:53:56.586Z,20.25
2022-11-14T00:56:23.639Z,19.65
2022-11-14T00:58:50.682Z,18.27
2022-11-14T01:01:17.866Z,19.65
2022-11-14T01:03:47.892Z,21.13
2022-11-14T01:06:15.792Z,20.63
2022-11-14T01:08:43.273Z,19.63
2022-11-14T01:11:11.818Z,19.85
2022-11-14T01:13:39.171Z,21.13
2022-11-14T01:16:06.463Z,25.02
2022-11-14T01:18:33.874Z,21.73
2022-11-14T01:21:00.945Z,24.00
2022-11-14T01:23:27.989Z,20.80
2022-11-14T01:25:54.598Z,21.00
2022-11-14T01:28:21.252Z,18.80
2022-11-14T01:30:48.289Z,18.55
2022-11-14T01:33:15.336Z,18.50
2022-11-14T01:35:42.398Z,19.60
2022-11-14T01:38:12.793Z,18.42
2022-11-14T01:40:44.073Z,19.67
2022-11-14T01:43:12.181Z,18.70
2022-11-14T01:45:54.966Z,19.77
2022-11-14T01:48:26.195Z,21.58
2022-11-14T01:50:56.411Z,19.70
2022-11-14T01:53:23.850Z,19.30
2022-11-14T01:55:53.094Z,19.50
2022-11-14T01:58:20.632Z,21.58
2022-11-14T02:00:47.690Z,20.27
2022-11-14T02:03:15.410Z,20.10
2022-11-14T02:05:43.439Z,20.67
2022-11-14T02:08:12.258Z,19.90
2022-11-14T02:10:39.315Z,17.63
2022-11-14T02:13:07.017Z,18.95
2022-11-14T02:15:34.166Z,21.20
2022-11-14T02:18:02.293Z,19.77
2022-11-14T02:20:33.717Z,18.10
2022-11-14T02:23:00.786Z,17.13
2022-11-14T02:25:28.167Z,17.02
2022-11-14T02:27:56.116Z,19.00
2022-11-14T02:30:23.924Z,19.17
2022-11-14T02:33:10.365Z,18.33
2022-11-14T02:35:37.681Z,19.73
2022-11-14T02:38:04.731Z,20.23
2022-11-14T02:40:31.837Z,17.58
2022-11-14T02:42:58.993Z,19.33
2022-11-14T02:45:26.304Z,17.33
2022-11-14T02:47:53.489Z,16.17
2022-11-14T02:50:20.559Z,17.55
2022-11-14T02:52:47.648Z,18.90
2022-11-14T02:55:14.674Z,18.55
2022-11-14T02:57:41.782Z,16.98
2022-11-14T03:00:14.590Z,17.58
2022-11-14T03:02:42.420Z,16.67
2022-11-14T03:05:09.600Z,20.55
2022-11-14T03:07:36.683Z,17.35
2022-11-14T03:10:04.065Z,18.73
2022-11-14T03:12:31.483Z,20.00
2022-11-14T03:14:58.543Z,18.40
2022-11-14T03:17:25.634Z,18.90
2022-11-14T03:19:52.682Z,18.48
2022-11-14T03:22:19.746Z,16.85
2022-11-14T03:24:46.802Z,18.23
2022-11-14T03:27:13.870Z,18.58
2022-11-14T03:29:40.964Z,20.95
2022-11-14T03:32:08.117Z,17.90
2022-11-14T03:34:35.229Z,16.95
2022-11-14T03:37:02.459Z,19.02
2022-11-14T03:39:29.519Z,19.92
2022-11-14T03:41:56.619Z,16.75
2022-11-14T03:44:23.271Z,18.75
2022-11-14T03:46:50.302Z,18.20
2022-11-14T03:49:17.351Z,19.80
2022-11-14T03:51:44.824Z,19.45
2022-11-14T03:54:11.852Z,17.10
2022-11-14T03:56:38.931Z,16.92
2022-11-14T03:59:06.047Z,16.25
2022-11-14T04:01:33.147Z,21.73
2022-11-14T04:04:00.199Z,21.20
2022-11-14T04:06:27.307Z,18.50
2022-11-14T04:08:56.546Z,21.30
2022-11-14T04:11:23.610Z,18.75
2022-11-14T04:13:50.686Z,16.63
2022-11-14T04:16:17.779Z,16.77
2022-11-14T04:18:44.783Z,18.10
2022-11-14T04:21:11.887Z,18.17
2022-11-14T04:23:38.984Z,18.23
2022-11-14T04:26:06.259Z,18.30
2022-11-14T04:28:33.414Z,19.88
2022-11-14T04:31:00.618Z,19.50
2022-11-14T04:33:27.821Z,17.92
2022-11-14T04:35:54.531Z,16.60
2022-11-14T04:38:21.655Z,19.35
2022-11-14T04:40:49.938Z,17.33
2022-11-14T04:43:17.036Z,16.13
2022-11-14T04:45:44.108Z,15.38
2022-11-14T04:48:11.395Z,18.95
2022-11-14T04:50:38.647Z,16.92
2022-11-14T04:53:06.091Z,20.42
2022-11-14T04:55:33.158Z,21.13
2022-11-14T04:58:00.406Z,23.67
2022-11-14T05:00:27.482Z,22.40
2022-11-14T05:02:54.648Z,21.25
2022-11-14T05:05:21.747Z,20.48
2022-11-14T05:07:48.420Z,18.10
2022-11-14T05:10:15.433Z,17.83
2022-11-14T05:12:42.523Z,18.95
2022-11-14T05:15:09.763Z,19.40
2022-11-14T05:17:36.799Z,19.88
2022-11-14T05:20:04.004Z,17.60
2022-11-14T05:22:31.028Z,19.42
2022-11-14T05:24:58.098Z,25.42
2022-11-14T05:27:25.163Z,30.60
2022-11-14T05:29:52.219Z,40.72
2022-11-14T05:32:19.259Z,41.20
2022-11-14T05:34:46.410Z,38.70
2022-11-14T05:37:13.442Z,40.40
2022-11-14T05:39:40.615Z,33.15
2022-11-14T05:42:07.638Z,34.38
2022-11-14T05:44:34.679Z,31.33
2022-11-14T05:47:01.419Z,29.00
2022-11-14T05:49:28.493Z,26.50
2022-11-14T05:51:55.558Z,25.45
2022-11-14T05:54:22.619Z,28.17
2022-11-14T05:56:49.707Z,27.90
2022-11-14T05:59:16.702Z,26.70
2022-11-14T06:01:43.863Z,25.30
2022-11-14T06:04:14.062Z,23.50
2022-11-14T06:06:41.135Z,23.83
2022-11-14T06:09:08.201Z,20.80
2022-11-14T06:11:35.336Z,26.40
2022-11-14T06:14:06.896Z,23.20
2022-11-14T06:16:36.752Z,23.27
2022-11-14T06:19:05.261Z,23.02
2022-11-14T06:21:32.395Z,23.92
2022-11-14T06:23:59.470Z,24.23
2022-11-14T06:26:30.063Z,23.40
2022-11-14T06:28:57.670Z,21.75
2022-11-14T06:31:25.465Z,20.45
2022-11-14T06:33:52.563Z,18.92
2022-11-14T06:36:19.938Z,22.65
2022-11-14T06:38:47.021Z,19.40
2022-11-14T06:41:16.385Z,21.77
2022-11-14T06:43:44.438Z,20.95
2022-11-14T06:46:12.684Z,21.20
2022-11-14T06:48:40.045Z,20.60
2022-11-14T06:51:07.302Z,21.90
2022-11-14T06:53:35.755Z,20.40
2022-11-14T06:56:04.230Z,19.98
2022-11-14T06:58:32.561Z,20.20
2022-11-14T07:01:10.462Z,19.35
2022-11-14T07:03:37.601Z,19.70
2022-11-14T07:06:05.242Z,19.80
2022-11-14T07:08:33.015Z,19.08
2022-11-14T07:11:02.730Z,19.88
2022-11-14T07:13:29.800Z,18.90
2022-11-14T07:15:56.871Z,19.77
2022-11-14T07:18:23.934Z,17.42
2022-11-14T07:20:50.998Z,18.80
2022-11-14T07:23:22.671Z,17.85
2022-11-14T07:25:51.541Z,17.35
2022-11-14T07:28:18.546Z,19.60
2022-11-14T07:30:45.794Z,18.45
2022-11-14T07:33:12.858Z,16.50
2022-11-14T07:35:40.338Z,15.48
2022-11-14T07:38:07.367Z,17.08
2022-11-14T07:40:34.428Z,15.82
2022-11-14T07:43:01.839Z,15.23
2022-11-14T07:45:29.327Z,14.20
2022-11-14T07:47:57.395Z,14.73
2022-11-14T07:50:25.365Z,14.60
2022-11-14T07:52:53.418Z,13.57
2022-11-14T07:55:20.919Z,14.85
2022-11-14T07:57:49.539Z,12.65
2022-11-14T08:00:16.925Z,13.75
2022-11-14T08:02:43.602Z,13.13
2022-11-14T08:05:11.197Z,12.85
2022-11-14T08:07:38.307Z,13.13
2022-11-14T08:10:05.707Z,13.07
2022-11-14T08:12:32.777Z,12.97
2022-11-14T08:14:59.835Z,11.50
2022-11-14T08:17:26.883Z,11.55
2022-11-14T08:19:53.923Z,11.25
2022-11-14T08:22:21.095Z,12.73
2022-11-14T08:24:48.125Z,10.93
2022-11-14T08:27:15.141Z,12.20
2022-11-14T08:29:42.167Z,10.15
2022-11-14T08:32:09.281Z,10.50
2022-11-14T08:34:36.837Z,10.43
2022-11-14T08:37:03.928Z,10.20
2022-11-14T08:39:30.989Z,10.52
2022-11-14T08:41:58.047Z,10.43
2022-11-14T08:44:25.106Z,9.83
2022-11-14T08:46:52.252Z,10.23
2022-11-14T08:49:19.455Z,10.75
2022-11-14T08:51:46.492Z,10.30
2022-11-14T08:54:13.594Z,9.40
2022-11-14T08:56:40.625Z,10.52
2022-11-14T08:59:07.737Z,9.93
2022-11-14T09:01:34.401Z,10.43
2022-11-14T09:04:01.769Z,9.27
2022-11-14T09:06:28.997Z,9.33
2022-11-14T09:08:56.142Z,10.35
2022-11-14T09:11:23.194Z,10.35
2022-11-14T09:13:50.245Z,10.23
2022-11-14T09:16:17.291Z,9.77
2022-11-14T09:18:44.285Z,9.48
2022-11-14T09:21:12.375Z,8.82
2022-11-14T09:23:39.459Z,9.10
2022-11-14T09:26:07.101Z,9.02
2022-11-14T09:28:34.484Z,8.55
2022-11-14T09:31:02.472Z,8.52
2022-11-14T09:33:30.086Z,8.27
2022-11-14T09:35:58.533Z,7.80
2022-11-14T09:38:25.587Z,7.82
2022-11-14T09:41:12.573Z,7.35
2022-11-14T09:43:55.097Z,7.55
2022-11-14T09:46:42.077Z,7.20
2022-11-14T09:49:12.133Z,6.82
2022-11-14T09:51:44.734Z,6.20
2022-11-14T09:54:28.198Z,6.00
2022-11-14T09:56:55.358Z,6.27
2022-11-14T09:59:22.449Z,6.13
2022-11-14T10:01:56.225Z,5.50
2022-11-14T10:04:27.762Z,5.32
2022-11-14T10:06:58.716Z,5.53
2022-11-14T10:09:30.390Z,6.05
2022-11-14T10:11:57.790Z,6.07
2022-11-14T10:14:32.246Z,6.63
2022-11-14T10:17:09.391Z,6.50
2022-11-14T10:19:57.613Z,6.57
2022-11-14T10:22:27.957Z,6.35
2022-11-14T10:24:58.249Z,6.30
2022-11-14T10:27:31.573Z,5.72
2022-11-14T10:30:06.377Z,5.53
2022-11-14T10:32:53.354Z,5.27
2022-11-14T10:35:20.437Z,5.65
2022-11-14T10:37:50.737Z,5.72
2022-11-14T10:40:18.918Z,5.38
2022-11-14T10:42:48.309Z,5.77
2022-11-14T10:45:18.665Z,5.75
2022-11-14T10:47:49.298Z,5.53
2022-11-14T10:50:22.046Z,5.40
2022-11-14T10:52:52.567Z,4.93
2022-11-14T10:55:37.184Z,4.65
2022-11-14T10:58:11.044Z,5.50
2022-11-14T11:00:38.124Z,5.50
2022-11-14T11:03:05.313Z,5.03
2022-11-14T11:05:32.421Z,6.03
2022-11-14T11:11:32.661Z,5.57
2022-11-14T11:14:00.945Z,5.27
2022-11-14T11:16:28.938Z,4.82
2022-11-14T11:19:13.817Z,5.37
2022-11-14T11:21:50.233Z,5.60
2022-11-14T11:24:31.236Z,5.03
2022-11-14T11:27:18.552Z,5.32
2022-11-14T11:29:45.633Z,4.90
2022-11-14T11:32:23.973Z,4.93
2022-11-14T11:34:51.910Z,5.20
2022-11-14T11:37:21.261Z,5.25
2022-11-14T11:39:51.119Z,5.22
2022-11-14T11:42:22.775Z,5.35
2022-11-14T11:44:52.296Z,5.00
2022-11-14T11:47:19.595Z,4.90
2022-11-14T11:49:54.170Z,5.18
2022-11-14T11:52:21.888Z,4.43
2022-11-14T11:54:49.916Z,4.93
2022-11-14T11:57:21.738Z,4.95
2022-11-14T11:59:53.068Z,4.28
2022-11-14T12:02:23.302Z,4.30
2022-11-14T12:04:51.127Z,4.80
2022-11-14T12:07:20.571Z,4.20
2022-11-14T12:10:09.993Z,4.20
2022-11-14T12:12:49.052Z,5.25
2022-11-14T12:15:19.335Z,4.00
2022-11-14T12:17:53.524Z,3.80
2022-11-14T12:20:20.548Z,4.30
2022-11-14T12:23:00.795Z,4.28
2022-11-14T12:25:59.808Z,4.20
2022-11-14T12:28:26.871Z,4.15
2022-11-14T12:30:56.904Z,4.45
2022-11-14T12:33:35.476Z,3.90
2022-11-14T12:36:03.343Z,4.77
2022-11-14T12:38:33.797Z,3.78
2022-11-14T12:41:01.615Z,3.87
2022-11-14T12:43:36.320Z,4.07
2022-11-14T12:46:08.416Z,4.22
2022-11-14T12:48:36.396Z,4.10
2022-11-14T12:51:05.303Z,3.92
2022-11-14T12:53:41.615Z,3.87
2022-11-14T12:56:15.463Z,3.67
2022-11-14T12:58:50.055Z,3.58
2022-11-14T13:01:32.878Z,3.80
2022-11-14T13:04:27.718Z,3.80
2022-11-14T13:07:01.165Z,2.70
2022-11-14T13:09:34.056Z,2.70
2022-11-14T13:12:39.415Z,2.50
2022-11-14T13:15:48.939Z,2.25
2022-11-14T13:18:39.745Z,1.83
2022-11-14T13:21:16.879Z,2.40
2022-11-14T13:23:44.008Z,2.25
2022-11-14T13:26:11.067Z,2.10
2022-11-14T13:28:38.237Z,2.45
2022-11-14T13:31:22.011Z,2.85
2022-11-14T13:33:51.269Z,3.28
2022-11-14T13:36:38.231Z,3.38
2022-11-14T13:39:16.807Z,3.72
2022-11-14T13:41:52.227Z,3.45
2022-11-14T13:44:20.311Z,3.25
2022-11-14T13:46:47.403Z,2.15
2022-11-14T13:49:34.363Z,2.95
2022-11-14T13:52:01.431Z,2.70
2022-11-14T13:54:29.205Z,2.20
2022-11-14T13:57:16.527Z,2.38
2022-11-14T13:59:46.314Z,2.40
2022-11-14T14:02:33.310Z,3.35
2022-11-14T14:05:10.487Z,2.30
2022-11-14T14:07:57.552Z,2.65
2022-11-14T14:10:24.680Z,2.67
2022-11-14T14:12:51.662Z,3.35
2022-11-14T14:15:22.294Z,3.10
2022-11-14T14:17:54.118Z,2.88
2022-11-14T14:20:36.771Z,2.45
2022-11-14T14:23:13.874Z,3.33
2022-11-14T14:26:00.863Z,3.20
2022-11-14T14:28:47.823Z,3.13
2022-11-14T14:31:16.406Z,3.50
2022-11-14T14:33:44.627Z,3.63
2022-11-14T14:36:19.148Z,3.25
2022-11-14T14:38:47.912Z,3.67
2022-11-14T14:41:15.912Z,4.28
2022-11-14T14:43:44.313Z,3.17
2022-11-14T14:46:11.552Z,3.47
2022-11-14T14:48:41.138Z,3.93
2022-11-14T14:51:13.359Z,3.67
2022-11-14T14:53:41.035Z,3.37
2022-11-14T14:56:18.150Z,3.97
2022-11-14T14:58:45.164Z,3.30
2022-11-14T15:01:12.273Z,3.08
2022-11-14T15:03:40.556Z,3.17
2022-11-14T15:06:18.839Z,13.32
2022-11-14T15:08:46.563Z,10.20
2022-11-14T15:11:14.882Z,6.55
2022-11-14T15:13:42.934Z,6.38
2022-11-14T15:16:10.469Z,4.95
2022-11-14T15:18:37.804Z,4.53
2022-11-14T15:21:24.811Z,4.50
2022-11-14T15:24:00.489Z,3.90
2022-11-14T15:26:29.386Z,3.75
2022-11-14T15:29:05.082Z,4.73
2022-11-14T15:31:32.227Z,3.55
2022-11-14T15:34:03.842Z,3.60
2022-11-14T15:36:30.926Z,3.60
2022-11-14T15:38:59.242Z,4.15
2022-11-14T15:41:28.037Z,5.55
2022-11-14T15:43:57.479Z,4.30
2022-11-14T15:46:44.477Z,4.63
2022-11-14T15:49:19.709Z,5.70
2022-11-14T15:51:47.838Z,3.60
2022-11-14T15:54:24.510Z,5.22
2022-11-14T15:56:51.896Z,4.20
2022-11-14T15:59:19.076Z,5.20
2022-11-14T16:01:46.937Z,5.82
2022-11-14T16:04:16.945Z,9.35
2022-11-14T16:06:43.930Z,6.13
2022-11-14T16:09:14.397Z,5.13
2022-11-14T16:11:41.497Z,4.75
2022-11-14T16:14:08.602Z,5.53
2022-11-14T16:16:35.641Z,3.70
2022-11-14T16:19:02.718Z,4.30
2022-11-14T16:21:29.813Z,3.65
2022-11-14T16:23:57.847Z,3.88
2022-11-14T16:26:26.308Z,5.22
2022-11-14T16:28:53.681Z,6.10
2022-11-14T16:31:20.760Z,4.87
2022-11-14T16:33:47.815Z,4.63
2022-11-14T16:36:14.885Z,4.72
2022-11-14T16:38:41.899Z,3.58
2022-11-14T16:41:09.814Z,4.00
2022-11-14T16:43:36.885Z,4.20
2022-11-14T16:46:04.985Z,5.55
2022-11-14T16:48:32.077Z,4.47
2022-11-14T16:51:14.535Z,6.28
2022-11-14T16:53:47.502Z,4.63
2022-11-14T16:56:14.645Z,5.75
2022-11-14T16:58:41.950Z,6.00
2022-11-14T17:01:18.704Z,5.15
2022-11-14T17:03:48.304Z,5.35
2022-11-14T17:06:15.380Z,6.45
2022-11-14T17:08:42.429Z,7.30
2022-11-14T17:11:10.144Z,5.22
2022-11-14T17:13:37.549Z,4.47
2022-11-14T17:16:05.161Z,4.50
2022-11-14T17:18:38.160Z,4.78
2022-11-14T17:21:07.538Z,4.38
2022-11-14T17:23:34.630Z,4.63
2022-11-14T17:26:03.671Z,4.28
2022-11-14T17:28:31.193Z,4.68
2022-11-14T17:30:58.433Z,4.65
2022-11-14T17:33:25.480Z,5.78
2022-11-14T17:35:52.583Z,5.15
2022-11-14T17:38:19.644Z,5.93
2022-11-14T17:40:46.741Z,5.60
2022-11-14T17:43:16.072Z,5.00
2022-11-14T17:45:43.168Z,4.63
2022-11-14T17:48:10.105Z,4.28
2022-11-14T17:50:39.854Z,4.30
2022-11-14T17:53:06.940Z,5.43
2022-11-14T17:55:34.080Z,4.75
2022-11-14T17:58:01.087Z,4.97
2022-11-14T18:00:28.223Z,4.07
2022-11-14T18:02:55.263Z,4.20
2022-11-14T18:05:22.365Z,4.30
2022-11-14T18:07:49.402Z,5.95
2022-11-14T18:10:16.718Z,8.10
2022-11-14T18:12:43.768Z,5.75
2022-11-14T18:15:10.967Z,5.40
2022-11-14T18:17:37.812Z,4.72
2022-11-14T18:20:05.122Z,12.45
2022-11-14T18:22:32.251Z,18.23
2022-11-14T18:25:06.416Z,23.25
2022-11-14T18:27:34.888Z,25.83
2022-11-14T18:30:19.721Z,21.45
2022-11-14T18:32:48.977Z,12.50
2022-11-14T18:35:16.000Z,7.20
2022-11-14T18:37:43.027Z,8.38
2022-11-14T18:40:16.270Z,7.07
2022-11-14T18:42:43.328Z,6.40
2022-11-14T18:45:10.477Z,5.93
2022-11-14T18:47:37.539Z,5.20
2022-11-14T18:50:04.755Z,4.90
2022-11-14T18:52:31.783Z,4.20
2022-11-14T18:54:58.875Z,5.28
2022-11-14T18:57:25.965Z,4.50
2022-11-14T18:59:53.025Z,12.88
2022-11-14T19:02:20.091Z,14.65
2022-11-14T19:04:47.263Z,14.95
2022-11-14T19:07:15.115Z,9.50
2022-11-14T19:09:44.194Z,16.80
2022-11-14T19:12:18.633Z,11.05
2022-11-14T19:14:46.240Z,23.30
2022-11-14T19:17:14.283Z,41.97
2022-11-14T19:19:41.321Z,26.77
2022-11-14T19:22:08.422Z,13.45
2022-11-14T19:24:35.484Z,11.50
2022-11-14T19:27:02.541Z,11.50
2022-11-14T19:29:29.628Z,10.35
2022-11-14T19:31:56.662Z,17.13
2022-11-14T19:34:23.694Z,12.38
2022-11-14T19:36:59.973Z,14.65
2022-11-14T19:39:28.052Z,56.00
2022-11-14T19:41:55.181Z,29.13
2022-11-14T19:44:22.263Z,19.85
2022-11-14T19:46:49.318Z,13.52
2022-11-14T19:49:16.457Z,15.10
2022-11-14T19:51:43.478Z,15.65
2022-11-14T19:54:11.155Z,23.27
2022-11-14T19:56:37.916Z,22.92
2022-11-14T19:59:09.655Z,26.08
2022-11-14T20:01:38.305Z,18.08
2022-11-14T20:04:07.269Z,20.25
2022-11-14T20:06:35.907Z,20.53
2022-11-14T20:09:04.737Z,15.63
2022-11-14T20:11:31.895Z,12.98
2022-11-14T20:13:59.285Z,17.88
2022-11-14T20:16:28.187Z,19.30
2022-11-14T20:18:59.131Z,21.75
2022-11-14T20:21:27.213Z,23.48
2022-11-14T20:23:54.386Z,19.85
2022-11-14T20:26:21.954Z,19.70
2022-11-14T20:28:53.091Z,25.40
2022-11-14T20:31:22.393Z,25.55
2022-11-14T20:33:50.576Z,23.75
2022-11-14T20:36:18.976Z,24.50
2022-11-14T20:38:47.376Z,20.15
2022-11-14T20:41:14.539Z,20.45
2022-11-14T20:43:42.108Z,27.85
2022-11-14T20:46:13.146Z,18.58
2022-11-14T20:48:40.568Z,16.45
2022-11-14T20:51:11.449Z,15.07
2022-11-14T20:53:38.719Z,11.70
2022-11-14T20:56:06.096Z,10.68
2022-11-14T20:58:33.274Z,10.68
2022-11-14T21:01:00.508Z,9.97
2022-11-14T21:03:28.086Z,12.30
2022-11-14T21:05:56.483Z,14.30
2022-11-14T21:08:23.541Z,13.35
2022-11-14T21:10:53.124Z,12.55
2022-11-14T21:13:41.375Z,13.98
2022-11-14T21:16:09.695Z,14.60
2022-11-14T21:18:38.434Z,22.05
2022-11-14T21:21:07.531Z,15.82
2022-11-14T21:23:34.749Z,14.93
2022-11-14T21:26:11.150Z,13.95
2022-11-14T21:28:39.531Z,14.85
2022-11-14T21:31:31.624Z,13.73
2022-11-14T21:33:59.360Z,13.07
2022-11-14T21:36:44.317Z,14.25
2022-11-14T21:39:14.847Z,14.43
2022-11-14T21:41:42.615Z,13.30
2022-11-14T21:44:11.844Z,12.00
2022-11-14T21:46:39.027Z,12.70
2022-11-14T21:49:06.108Z,12.55
2022-11-14T21:51:33.163Z,12.23
2022-11-14T21:54:02.567Z,13.63
2022-11-14T21:56:31.024Z,13.38
2022-11-14T21:59:14.836Z,12.90
2022-11-14T22:02:03.524Z,13.48
2022-11-14T22:04:31.475Z,13.60
2022-11-14T22:06:59.066Z,13.35
2022-11-14T22:09:28.225Z,14.13
2022-11-14T22:11:55.707Z,12.95
2022-11-14T22:14:22.956Z,12.85
2022-11-14T22:16:49.663Z,12.75
2022-11-14T22:19:16.889Z,13.75
2022-11-14T22:21:43.949Z,11.30
2022-11-14T22:24:11.121Z,10.43
2022-11-14T22:26:40.008Z,9.48
2022-11-14T22:29:07.539Z,10.00
2022-11-14T22:31:34.624Z,11.93
2022-11-14T22:34:01.676Z,12.15
2022-11-14T22:36:28.730Z,11.43
2022-11-14T22:38:56.972Z,12.70
2022-11-14T22:41:30.486Z,12.02
2022-11-14T22:43:59.287Z,12.63
2022-11-14T22:46:27.213Z,11.00
2022-11-14T22:48:54.769Z,12.30
2022-11-14T22:51:24.004Z,11.88
2022-11-14T22:53:52.218Z,12.68
2022-11-14T22:56:20.200Z,13.47
2022-11-14T22:58:47.509Z,17.30
2022-11-14T23:01:14.561Z,13.40
2022-11-14T23:03:41.818Z,11.07
2022-11-14T23:06:09.638Z,10.87
2022-11-14T23:08:36.779Z,10.70
2022-11-14T23:11:05.120Z,10.05
2022-11-14T23:13:32.503Z,9.85
2022-11-14T23:15:59.813Z,11.88
2022-11-14T23:18:26.865Z,7.90
2022-11-14T23:20:53.961Z,8.77
2022-11-14T23:23:21.105Z,8.93
2022-11-14T23:25:48.109Z,10.95
2022-11-14T23:28:15.171Z,8.53
2022-11-14T23:30:42.200Z,10.50
2022-11-14T23:33:09.240Z,9.02
2022-11-14T23:35:36.315Z,10.57
2022-11-14T23:38:04.757Z,10.35
2022-11-14T23:40:31.941Z,11.13
2022-11-14T23:42:59.072Z,10.25
2022-11-14T23:45:26.160Z,11.70
2022-11-14T23:47:53.277Z,9.98
2022-11-14T23:50:20.360Z,8.82
2022-11-14T23:52:47.429Z,10.70
2022-11-14T23:55:14.488Z,9.93
2022-11-14T23:57:41.588Z,13.85
